createdAt,value
2022-08-30T00:00:24.273Z,14.54
2022-08-30T00:02:50.733Z,14.46
2022-08-30T00:05:17.519Z,14.48
2022-08-30T00:07:43.850Z,14.49
2022-08-30T00:10:10.662Z,14.44
2022-08-30T00:12:37.088Z,14.40
2022-08-30T00:15:05.230Z,14.42
2022-08-30T00:17:31.635Z,14.39
2022-08-30T00:19:58.227Z,14.32
2022-08-30T00:22:25.054Z,14.28
2022-08-30T00:24:51.715Z,14.28
2022-08-30T00:27:18.726Z,14.21
2022-08-30T00:29:45.270Z,14.17
2022-08-30T00:32:11.645Z,14.12
2022-08-30T00:34:38.348Z,14.17
2022-08-30T00:37:04.809Z,14.16
2022-08-30T00:39:31.135Z,14.12
2022-08-30T00:41:57.552Z,14.06
2022-08-30T00:44:24.285Z,14.05
2022-08-30T00:46:50.660Z,14.04
2022-08-30T00:49:17.500Z,13.99
2022-08-30T00:51:44.602Z,13.91
2022-08-30T00:54:11.868Z,13.99
2022-08-30T00:56:38.257Z,14.01
2022-08-30T00:59:06.084Z,14.04
2022-08-30T01:01:34.107Z,13.95
2022-08-30T01:04:00.885Z,13.95
2022-08-30T01:06:32.481Z,13.88
2022-08-30T01:09:01.498Z,13.86
2022-08-30T01:11:28.933Z,13.83
2022-08-30T01:13:55.776Z,13.77
2022-08-30T01:16:23.204Z,13.70
2022-08-30T01:18:52.572Z,13.72
2022-08-30T01:21:27.307Z,13.68
2022-08-30T01:23:57.147Z,13.72
2022-08-30T01:26:25.110Z,13.53
2022-08-30T01:28:55.647Z,13.77
2022-08-30T01:31:22.452Z,13.72
2022-08-30T01:33:49.086Z,13.65
2022-08-30T01:36:15.724Z,13.63
2022-08-30T01:38:47.712Z,13.68
2022-08-30T01:41:20.660Z,13.62
2022-08-30T01:43:48.491Z,13.64
2022-08-30T01:46:17.395Z,13.63
2022-08-30T01:48:53.069Z,13.65
2022-08-30T01:51:23.414Z,13.64
2022-08-30T01:53:49.978Z,13.59
2022-08-30T01:56:16.890Z,13.61
2022-08-30T01:58:44.061Z,13.55
2022-08-30T02:01:13.800Z,13.56
2022-08-30T02:03:42.853Z,13.51
2022-08-30T02:06:13.287Z,13.52
2022-08-30T02:08:40.925Z,13.48
2022-08-30T02:11:08.300Z,13.45
2022-08-30T02:13:35.465Z,13.34
2022-08-30T02:16:01.857Z,13.26
2022-08-30T02:18:28.610Z,13.30
2022-08-30T02:20:55.190Z,13.30
2022-08-30T02:23:21.853Z,13.31
2022-08-30T02:25:48.700Z,13.35
2022-08-30T02:28:15.093Z,13.30
2022-08-30T02:30:42.795Z,13.30
2022-08-30T02:33:09.580Z,13.23
2022-08-30T02:35:36.004Z,13.22
2022-08-30T02:38:02.396Z,13.23
2022-08-30T02:40:28.804Z,13.16
2022-08-30T02:42:55.565Z,13.10
2022-08-30T02:45:24.835Z,13.06
2022-08-30T02:47:51.476Z,13.10
2022-08-30T02:50:18.397Z,13.11
2022-08-30T02:52:48.317Z,12.95
2022-08-30T02:55:15.763Z,13.04
2022-08-30T02:57:42.370Z,13.01
2022-08-30T03:00:11.033Z,13.06
2022-08-30T03:02:37.697Z,13.04
2022-08-30T03:05:04.802Z,12.95
2022-08-30T03:07:31.138Z,12.86
2022-08-30T03:09:57.818Z,12.89
2022-08-30T03:12:24.342Z,12.87
2022-08-30T03:14:51.457Z,12.84
2022-08-30T03:17:18.306Z,12.84
2022-08-30T03:19:44.915Z,12.83
2022-08-30T03:22:12.215Z,12.83
2022-08-30T03:24:38.917Z,12.77
2022-08-30T03:27:05.488Z,12.80
2022-08-30T03:29:31.936Z,12.74
2022-08-30T03:31:58.332Z,12.85
2022-08-30T03:34:26.126Z,12.87
2022-08-30T03:36:54.862Z,12.81
2022-08-30T03:39:22.444Z,12.78
2022-08-30T03:41:49.470Z,12.77
2022-08-30T03:44:16.011Z,12.70
2022-08-30T03:46:42.757Z,12.65
2022-08-30T03:49:09.535Z,12.63
2022-08-30T03:51:35.972Z,12.60
2022-08-30T03:54:02.365Z,12.58
2022-08-30T03:56:28.772Z,12.51
2022-08-30T03:58:55.549Z,12.52
2022-08-30T04:01:22.021Z,12.53
2022-08-30T04:03:48.382Z,12.49
2022-08-30T04:06:14.909Z,12.48
2022-08-30T04:08:42.006Z,12.51
2022-08-30T04:11:08.859Z,12.41
2022-08-30T04:13:35.277Z,12.39
2022-08-30T04:16:01.866Z,12.34
2022-08-30T04:18:28.212Z,12.42
2022-08-30T04:20:55.003Z,12.45
2022-08-30T04:23:21.441Z,12.41
2022-08-30T04:25:48.190Z,12.38
2022-08-30T04:28:14.989Z,12.39
2022-08-30T04:30:44.753Z,12.32
2022-08-30T04:33:13.407Z,12.33
2022-08-30T04:35:42.116Z,12.27
2022-08-30T04:38:08.737Z,12.37
2022-08-30T04:40:35.469Z,12.37
2022-08-30T04:43:02.430Z,12.42
2022-08-30T04:45:28.869Z,12.23
2022-08-30T04:47:56.575Z,12.34
2022-08-30T04:50:23.784Z,12.36
2022-08-30T04:52:50.546Z,12.35
2022-08-30T04:55:20.193Z,12.22
2022-08-30T04:57:46.894Z,12.25
2022-08-30T05:00:14.209Z,12.24
2022-08-30T05:02:41.168Z,12.27
2022-08-30T05:05:09.546Z,12.24
2022-08-30T05:07:36.700Z,12.33
2022-08-30T05:10:11.135Z,12.50
2022-08-30T05:12:38.247Z,12.56
2022-08-30T05:15:05.118Z,12.51
2022-08-30T05:17:31.700Z,12.53
2022-08-30T05:19:58.305Z,12.54
2022-08-30T05:22:24.732Z,12.69
2022-08-30T05:24:51.068Z,12.72
2022-08-30T05:27:17.987Z,12.71
2022-08-30T05:29:46.769Z,12.71
2022-08-30T05:32:13.154Z,12.75
2022-08-30T05:34:39.728Z,12.79
2022-08-30T05:37:06.200Z,12.83
2022-08-30T05:39:51.477Z,12.87
2022-08-30T05:42:18.411Z,12.90
2022-08-30T05:44:44.795Z,12.81
2022-08-30T05:47:11.207Z,12.83
2022-08-30T05:49:37.588Z,12.80
2022-08-30T05:52:04.504Z,12.92
2022-08-30T05:54:31.064Z,12.96
2022-08-30T05:57:00.573Z,13.06
2022-08-30T05:59:26.945Z,13.09
2022-08-30T06:01:57.351Z,13.13
2022-08-30T06:04:24.792Z,13.30
2022-08-30T06:06:51.251Z,13.34
2022-08-30T06:09:18.204Z,13.44
2022-08-30T06:11:46.821Z,13.49
2022-08-30T06:14:14.598Z,13.50
2022-08-30T06:16:41.405Z,13.56
2022-08-30T06:19:09.318Z,13.70
2022-08-30T06:21:36.908Z,13.78
2022-08-30T06:24:05.889Z,13.83
2022-08-30T06:29:07.645Z,14.00
2022-08-30T06:31:34.891Z,14.07
2022-08-30T06:34:01.429Z,14.13
2022-08-30T06:36:28.457Z,14.29
2022-08-30T06:39:15.904Z,14.40
2022-08-30T06:41:43.477Z,14.43
2022-08-30T06:44:16.171Z,14.55
2022-08-30T06:46:42.565Z,14.62
2022-08-30T06:49:09.145Z,14.71
2022-08-30T06:51:39.743Z,14.75
2022-08-30T06:54:09.202Z,14.88
2022-08-30T06:56:37.308Z,14.91
2022-08-30T06:59:04.494Z,14.98
2022-08-30T07:01:31.874Z,15.03
2022-08-30T07:03:58.967Z,15.09
2022-08-30T07:06:26.960Z,15.13
2022-08-30T07:08:56.404Z,15.29
2022-08-30T07:11:35.381Z,15.41
2022-08-30T07:14:06.072Z,15.50
2022-08-30T07:16:32.879Z,15.59
2022-08-30T07:19:00.322Z,15.75
2022-08-30T07:21:34.622Z,15.82
2022-08-30T07:24:01.575Z,15.85
2022-08-30T07:26:34.893Z,16.03
2022-08-30T07:29:01.903Z,16.23
2022-08-30T07:31:31.045Z,16.34
2022-08-30T07:33:59.017Z,16.50
2022-08-30T07:36:25.890Z,16.76
2022-08-30T07:38:55.286Z,16.80
2022-08-30T07:41:29.489Z,16.84
2022-08-30T07:43:56.877Z,16.97
2022-08-30T07:46:24.782Z,17.16
2022-08-30T07:48:52.017Z,17.45
2022-08-30T07:51:21.661Z,17.50
2022-08-30T07:53:48.194Z,17.83
2022-08-30T07:56:14.919Z,17.87
2022-08-30T07:58:41.927Z,18.07
2022-08-30T08:01:10.578Z,18.22
2022-08-30T08:06:25.002Z,18.25
2022-08-30T08:08:58.824Z,18.46
2022-08-30T08:11:31.586Z,18.85
2022-08-30T08:14:00.504Z,18.95
2022-08-30T08:16:29.100Z,19.01
2022-08-30T08:18:56.235Z,19.08
2022-08-30T08:21:26.765Z,19.10
2022-08-30T08:23:53.572Z,19.34
2022-08-30T08:26:20.576Z,19.55
2022-08-30T08:28:47.785Z,19.52
2022-08-30T08:31:16.011Z,19.64
2022-08-30T08:33:42.503Z,19.65
2022-08-30T08:36:09.558Z,19.69
2022-08-30T08:38:36.332Z,19.79
2022-08-30T08:41:25.760Z,20.08
2022-08-30T08:43:52.198Z,20.17
2022-08-30T08:46:39.979Z,20.26
2022-08-30T08:49:11.893Z,20.39
2022-08-30T08:51:40.031Z,20.55
2022-08-30T08:54:14.999Z,20.72
2022-08-30T08:56:41.636Z,21.14
2022-08-30T08:59:10.783Z,21.18
2022-08-30T09:01:40.406Z,21.31
2022-08-30T09:04:16.711Z,21.43
2022-08-30T09:06:57.045Z,21.57
2022-08-30T09:09:27.945Z,21.75
2022-08-30T09:11:54.379Z,21.59
2022-08-30T09:14:30.272Z,21.89
2022-08-30T09:17:02.924Z,21.98
2022-08-30T09:19:54.383Z,21.95
2022-08-30T09:22:46.775Z,22.39
2022-08-30T09:25:14.639Z,22.58
2022-08-30T09:27:47.422Z,22.84
2022-08-30T09:30:21.257Z,23.35
2022-08-30T09:32:54.202Z,24.25
2022-08-30T09:35:41.638Z,24.83
2022-08-30T09:38:18.097Z,24.97
2022-08-30T09:40:51.160Z,25.19
2022-08-30T09:43:20.759Z,25.99
2022-08-30T09:46:00.899Z,25.91
2022-08-30T09:48:41.013Z,26.39
2022-08-30T09:51:10.390Z,26.80
2022-08-30T09:57:12.603Z,26.60
2022-08-30T10:00:00.533Z,26.40
2022-08-30T10:02:48.321Z,26.38
2022-08-30T10:05:36.446Z,26.64
2022-08-30T10:08:05.824Z,26.13
2022-08-30T10:10:46.761Z,26.03
2022-08-30T10:13:49.302Z,25.87
2022-08-30T10:16:40.844Z,25.89
2022-08-30T10:19:38.293Z,25.81
2022-08-30T10:22:18.412Z,25.85
2022-08-30T10:24:50.352Z,25.89
2022-08-30T10:27:28.882Z,25.82
2022-08-30T10:30:10.042Z,25.87
2022-08-30T10:32:46.642Z,25.69
2022-08-30T10:35:22.673Z,25.60
2022-08-30T10:38:27.037Z,25.76
2022-08-30T10:41:07.376Z,25.88
2022-08-30T10:43:45.657Z,25.82
2022-08-30T10:46:25.316Z,25.55
2022-08-30T10:48:53.962Z,25.39
2022-08-30T10:51:29.328Z,25.64
2022-08-30T10:54:08.589Z,25.68
2022-08-30T10:56:40.530Z,25.68
2022-08-30T10:59:07.613Z,25.45
2022-08-30T11:02:18.046Z,25.29
2022-08-30T11:04:56.578Z,25.36
2022-08-30T11:07:41.873Z,25.19
2022-08-30T11:10:25.840Z,25.04
2022-08-30T11:13:04.694Z,25.06
2022-08-30T11:15:57.525Z,25.40
2022-08-30T11:18:26.107Z,25.16
2022-08-30T11:21:15.025Z,25.24
2022-08-30T11:23:41.954Z,25.23
2022-08-30T11:26:32.397Z,25.31
2022-08-30T11:28:59.002Z,25.38
2022-08-30T11:31:33.624Z,25.35
2022-08-30T11:34:01.118Z,25.45
2022-08-30T11:36:37.350Z,25.57
2022-08-30T11:39:42.192Z,25.72
2022-08-30T11:42:24.970Z,26.00
2022-08-30T11:45:25.485Z,25.93
2022-08-30T11:48:08.427Z,25.69
2022-08-30T11:50:54.489Z,25.52
2022-08-30T11:53:43.449Z,25.47
2022-08-30T11:56:21.521Z,25.49
2022-08-30T11:59:01.779Z,25.55
2022-08-30T12:01:50.537Z,25.44
2022-08-30T12:04:17.519Z,25.38
2022-08-30T12:06:46.993Z,25.55
2022-08-30T12:09:25.287Z,25.50
2022-08-30T12:11:57.658Z,25.54
2022-08-30T12:14:33.139Z,25.58
2022-08-30T12:17:01.494Z,25.46
2022-08-30T12:19:30.146Z,25.48
2022-08-30T12:22:01.042Z,25.56
2022-08-30T12:24:41.056Z,25.62
2022-08-30T12:27:32.590Z,25.55
2022-08-30T12:30:08.797Z,25.57
2022-08-30T12:32:45.868Z,25.69
2022-08-30T12:35:22.276Z,25.68
2022-08-30T12:37:59.997Z,25.74
2022-08-30T12:40:27.272Z,25.71
2022-08-30T12:43:02.781Z,25.77
2022-08-30T12:45:34.011Z,25.86
2022-08-30T12:48:11.733Z,26.17
2022-08-30T12:50:43.954Z,26.29
2022-08-30T12:53:14.277Z,26.46
2022-08-30T12:56:06.178Z,26.76
2022-08-30T12:58:42.469Z,26.98
2022-08-30T13:01:24.546Z,26.86
2022-08-30T13:04:20.557Z,26.60
2022-08-30T13:07:01.767Z,26.60
2022-08-30T13:09:32.986Z,26.54
2022-08-30T13:12:01.817Z,26.36
2022-08-30T13:14:38.117Z,26.60
2022-08-30T13:17:10.770Z,26.49
2022-08-30T13:19:43.421Z,26.44
2022-08-30T13:22:38.070Z,26.51
2022-08-30T13:25:06.068Z,26.34
2022-08-30T13:27:36.824Z,26.41
2022-08-30T13:30:15.507Z,26.45
2022-08-30T13:32:42.775Z,26.45
2022-08-30T13:35:10.222Z,26.38
2022-08-30T13:37:47.240Z,26.19
2022-08-30T13:40:17.120Z,26.12
2022-08-30T13:42:45.131Z,26.21
2022-08-30T13:48:01.555Z,26.48
2022-08-30T13:50:28.191Z,26.69
2022-08-30T13:52:56.803Z,26.58
2022-08-30T13:55:23.265Z,26.58
2022-08-30T13:57:57.323Z,26.61
2022-08-30T14:00:25.503Z,26.56
2022-08-30T14:02:54.654Z,26.70
2022-08-30T14:11:00.103Z,26.61
2022-08-30T14:13:27.112Z,26.29
2022-08-30T14:18:44.321Z,25.89
2022-08-30T14:21:10.794Z,25.76
2022-08-30T14:23:37.111Z,25.73
2022-08-30T14:26:09.951Z,25.74
2022-08-30T14:28:36.261Z,25.63
2022-08-30T14:31:03.146Z,25.62
2022-08-30T14:33:29.520Z,25.74
2022-08-30T14:35:56.246Z,25.82
2022-08-30T14:38:22.700Z,26.20
2022-08-30T14:40:49.289Z,26.15
2022-08-30T14:43:15.927Z,25.99
2022-08-30T14:45:42.778Z,26.05
2022-08-30T14:48:11.571Z,25.93
2022-08-30T14:50:39.256Z,25.78
2022-08-30T14:53:06.769Z,25.68
2022-08-30T14:55:34.879Z,25.65
2022-08-30T14:58:01.971Z,25.65
2022-08-30T15:00:30.438Z,25.64
2022-08-30T15:02:57.084Z,25.65
2022-08-30T15:05:23.506Z,25.81
2022-08-30T15:07:50.880Z,25.87
2022-08-30T15:10:18.838Z,25.85
2022-08-30T15:12:49.868Z,26.00
2022-08-30T15:15:19.513Z,25.95
2022-08-30T15:17:48.135Z,25.85
2022-08-30T15:20:16.300Z,26.04
2022-08-30T15:22:42.705Z,25.94
2022-08-30T15:25:13.230Z,26.34
2022-08-30T15:27:39.657Z,26.28
2022-08-30T15:30:08.360Z,26.11
2022-08-30T15:32:37.503Z,26.19
2022-08-30T15:35:04.890Z,26.04
2022-08-30T15:37:34.242Z,25.88
2022-08-30T15:40:01.220Z,25.77
2022-08-30T15:42:31.095Z,25.50
2022-08-30T15:44:57.610Z,25.53
2022-08-30T15:47:24.049Z,25.50
2022-08-30T15:50:02.590Z,25.42
2022-08-30T15:52:30.345Z,25.44
2022-08-30T15:54:56.991Z,25.40
2022-08-30T15:57:23.468Z,25.45
2022-08-30T15:59:50.405Z,25.40
2022-08-30T16:02:17.262Z,25.31
2022-08-30T16:04:43.894Z,25.13
2022-08-30T16:07:10.308Z,25.21
2022-08-30T16:09:38.368Z,25.15
2022-08-30T16:12:06.406Z,25.23
2022-08-30T16:14:33.503Z,25.14
2022-08-30T16:16:59.836Z,25.16
2022-08-30T16:19:26.663Z,25.06
2022-08-30T16:21:53.009Z,24.96
2022-08-30T16:24:22.838Z,25.01
2022-08-30T16:26:49.725Z,24.94
2022-08-30T16:29:16.190Z,24.97
2022-08-30T16:31:43.833Z,24.87
2022-08-30T16:34:13.068Z,25.19
2022-08-30T16:36:39.616Z,25.12
2022-08-30T16:39:08.471Z,24.94
2022-08-30T16:41:36.380Z,24.85
2022-08-30T16:44:03.790Z,24.72
2022-08-30T16:46:33.347Z,24.81
2022-08-30T16:49:00.679Z,24.75
2022-08-30T16:51:29.475Z,24.78
2022-08-30T16:53:57.886Z,24.71
2022-08-30T16:56:26.747Z,24.80
2022-08-30T16:59:00.838Z,24.89
2022-08-30T17:01:29.471Z,24.58
2022-08-30T17:03:55.861Z,24.42
2022-08-30T17:06:22.649Z,24.26
2022-08-30T17:08:49.322Z,24.48
2022-08-30T17:11:22.289Z,24.28
2022-08-30T17:13:49.221Z,24.16
2022-08-30T17:16:17.389Z,24.31
2022-08-30T17:18:53.995Z,24.11
2022-08-30T17:21:20.561Z,23.93
2022-08-30T17:23:48.389Z,23.77
2022-08-30T17:26:16.151Z,23.81
2022-08-30T17:28:42.902Z,23.72
2022-08-30T17:31:11.098Z,23.69
2022-08-30T17:33:37.824Z,23.61
2022-08-30T17:36:09.096Z,23.45
2022-08-30T17:38:35.434Z,23.40
2022-08-30T17:41:09.314Z,23.34
2022-08-30T17:43:37.820Z,23.25
2022-08-30T17:46:07.119Z,23.15
2022-08-30T17:48:34.334Z,23.14
2022-08-30T17:51:02.133Z,23.09
2022-08-30T17:53:29.613Z,23.04
2022-08-30T17:55:56.113Z,22.93
2022-08-30T17:58:25.144Z,22.89
2022-08-30T18:00:51.504Z,22.82
2022-08-30T18:03:18.191Z,22.74
2022-08-30T18:05:44.580Z,22.68
2022-08-30T18:08:14.099Z,22.65
2022-08-30T18:10:40.474Z,22.60
2022-08-30T18:13:06.859Z,22.58
2022-08-30T18:15:33.973Z,22.54
2022-08-30T18:18:00.578Z,22.44
2022-08-30T18:20:26.914Z,22.37
2022-08-30T18:22:57.662Z,22.31
2022-08-30T18:25:24.091Z,22.17
2022-08-30T18:27:58.198Z,22.19
2022-08-30T18:30:29.886Z,22.04
2022-08-30T18:33:00.188Z,22.06
2022-08-30T18:35:27.268Z,21.96
2022-08-30T18:37:53.582Z,21.91
2022-08-30T18:40:20.284Z,21.77
2022-08-30T18:42:47.641Z,21.82
2022-08-30T18:45:15.077Z,21.69
2022-08-30T18:47:42.567Z,21.73
2022-08-30T18:50:09.305Z,21.60
2022-08-30T18:52:35.727Z,21.55
2022-08-30T18:55:02.487Z,21.51
2022-08-30T18:57:28.874Z,21.40
2022-08-30T18:59:57.451Z,21.38
2022-08-30T19:02:27.504Z,21.34
2022-08-30T19:04:54.416Z,21.37
2022-08-30T19:07:20.870Z,21.29
2022-08-30T19:09:53.539Z,21.30
2022-08-30T19:12:20.444Z,21.23
2022-08-30T19:14:47.376Z,21.16
2022-08-30T19:17:14.089Z,21.13
2022-08-30T19:19:48.295Z,21.13
2022-08-30T19:22:15.772Z,21.04
2022-08-30T19:24:42.098Z,20.99
2022-08-30T19:27:09.975Z,20.99
2022-08-30T19:29:36.315Z,20.96
2022-08-30T19:32:03.547Z,20.86
2022-08-30T19:34:30.256Z,20.89
2022-08-30T19:36:56.818Z,20.88
2022-08-30T19:39:23.938Z,20.80
2022-08-30T19:41:50.626Z,20.87
2022-08-30T19:44:16.958Z,20.80
2022-08-30T19:46:44.610Z,20.77
2022-08-30T19:49:11.456Z,20.79
2022-08-30T19:51:39.964Z,20.81
2022-08-30T19:54:13.565Z,20.79
2022-08-30T19:56:40.390Z,20.72
2022-08-30T19:59:06.709Z,20.70
2022-08-30T20:01:33.943Z,20.71
2022-08-30T20:04:01.178Z,20.69
2022-08-30T20:06:28.155Z,20.64
2022-08-30T20:08:56.779Z,20.55
2022-08-30T20:11:24.606Z,20.44
2022-08-30T20:13:51.190Z,20.28
2022-08-30T20:16:17.678Z,20.37
2022-08-30T20:18:45.330Z,20.32
2022-08-30T20:21:13.563Z,20.25
2022-08-30T20:23:40.846Z,20.14
2022-08-30T20:26:08.213Z,20.15
2022-08-30T20:28:34.983Z,20.13
2022-08-30T20:31:03.993Z,20.14
2022-08-30T20:33:30.406Z,19.97
2022-08-30T20:36:00.804Z,19.98
2022-08-30T20:38:27.974Z,19.91
2022-08-30T20:40:57.347Z,19.87
2022-08-30T20:43:26.705Z,19.87
2022-08-30T20:45:54.277Z,19.76
2022-08-30T20:48:21.961Z,19.78
2022-08-30T20:50:48.634Z,19.73
2022-08-30T20:53:16.215Z,19.63
2022-08-30T20:55:45.373Z,19.63
2022-08-30T20:58:12.266Z,19.56
2022-08-30T21:00:38.953Z,19.61
2022-08-30T21:03:08.288Z,19.61
2022-08-30T21:05:53.048Z,19.61
2022-08-30T21:08:19.441Z,19.59
2022-08-30T21:10:46.045Z,19.51
2022-08-30T21:13:12.436Z,19.48
2022-08-30T21:15:39.007Z,19.45
2022-08-30T21:18:06.053Z,19.41
2022-08-30T21:20:32.522Z,19.35
2022-08-30T21:22:59.132Z,19.36
2022-08-30T21:25:25.784Z,19.34
2022-08-30T21:27:52.184Z,19.35
2022-08-30T21:30:18.610Z,19.27
2022-08-30T21:32:45.032Z,19.30
2022-08-30T21:35:11.420Z,19.19
2022-08-30T21:37:37.957Z,19.22
2022-08-30T21:40:04.847Z,19.21
2022-08-30T21:42:31.264Z,19.13
2022-08-30T21:44:57.662Z,19.10
2022-08-30T21:47:24.307Z,19.13
2022-08-30T21:49:50.640Z,19.08
2022-08-30T21:52:17.060Z,19.02
2022-08-30T21:54:43.380Z,18.97
2022-08-30T21:57:09.702Z,18.92
2022-08-30T21:59:36.416Z,18.89
2022-08-30T22:02:02.840Z,18.83
2022-08-30T22:04:29.508Z,18.85
2022-08-30T22:06:55.921Z,18.72
2022-08-30T22:09:24.710Z,18.72
2022-08-30T22:11:51.199Z,18.62
2022-08-30T22:14:19.005Z,18.56
2022-08-30T22:16:45.694Z,18.43
2022-08-30T22:19:12.419Z,18.45
2022-08-30T22:21:39.621Z,18.28
2022-08-30T22:24:06.071Z,18.28
2022-08-30T22:26:33.688Z,18.32
2022-08-30T22:29:00.793Z,18.33
2022-08-30T22:31:27.690Z,18.25
2022-08-30T22:33:54.554Z,18.41
2022-08-30T22:36:32.639Z,18.48
2022-08-30T22:39:00.737Z,18.49
2022-08-30T22:41:31.467Z,18.55
2022-08-30T22:43:58.535Z,18.48
2022-08-30T22:46:33.629Z,18.59
2022-08-30T22:49:02.031Z,18.68
2022-08-30T22:51:28.357Z,18.71
2022-08-30T22:53:54.748Z,18.66
2022-08-30T22:56:24.038Z,18.69
2022-08-30T22:58:51.455Z,18.65
2022-08-30T23:01:29.875Z,18.59
2022-08-30T23:03:57.532Z,18.54
2022-08-30T23:06:24.825Z,18.49
2022-08-30T23:08:51.436Z,18.42
2022-08-30T23:11:18.260Z,18.31
2022-08-30T23:13:45.680Z,18.29
2022-08-30T23:16:14.011Z,18.28
2022-08-30T23:18:44.185Z,18.25
2022-08-30T23:21:20.598Z,18.23
2022-08-30T23:23:47.688Z,18.20
2022-08-30T23:26:14.123Z,18.18
2022-08-30T23:28:40.698Z,18.10
2022-08-30T23:31:14.247Z,18.07
2022-08-30T23:33:40.677Z,18.04
2022-08-30T23:36:09.586Z,18.02
2022-08-30T23:38:36.425Z,17.98
2022-08-30T23:41:02.883Z,17.91
2022-08-30T23:43:29.233Z,17.78
2022-08-30T23:45:56.571Z,17.82
2022-08-30T23:48:23.063Z,17.78
2022-08-30T23:50:49.379Z,17.77
2022-08-30T23:53:15.974Z,17.73
2022-08-30T23:55:42.349Z,17.66
2022-08-30T23:58:08.731Z,17.66
